Terminal Aerodrome Forecast
Issued by NWS

Home | Current Version | Previous Version | Text Only | Print | Product List | Glossary On
Versions: 1 2 3 4 5 6 7 8 9 10 11 12
000
FTAK31 PAJN 261100
TAFAPG
TAF
PAPG 261130Z 2612/2712 04004KT P6SM OVC070 WS020/14035KT
     FM261500 11012G22KT P6SM -RA BKN030 OVC050 WS020/13040KT
     FM262100 08008G18KT 6SM -RA BKN025 OVC050 WS020/13045KT
     FM270300 12008KT P6SM -SHRA BKN040 OVC060
     FM270800 20004KT P6SM -SHRA BKN050 OVC070
      AMD LTD TO CLD VIS AND WIND TIL 261500=

USA.gov is the U.S. government's official web portal to all federal, state and local government web resources and services.